Harbinger, NC (27941)

9:50 PM EDT on August 20, 2014 (GMT -0400)
OBXJIM's HOME | Change Station
CLOSE
Current Station
Personal Weather Station
Location: Point Harbor, NC
Elevation: 9 ft
Nearby Weather Stations

Elev 9 ft 36.09 °N, 75.80 °W | Updated 46 seconds ago

Clear
Clear
77.9 °F
Feels Like 80 °F
N
0.0
Wind Variable Wind from WNW
Gusts 0.0 mph

Today
High -- | Low -- °F
--% Chance of Precip.
Yesterday
High -- | Low -- °F
Precip. -- in
6:25 AM 7:47 PM
Waning Crescent, 17% visible
Pressure 30.00 in
Visibility 10.0 miles
Clouds Clear
Heat Index 80 °F
Dew Point 64 °F
Humidity 63%
Rainfall 0.00 in
Snow Depth Not available.
UV 0 out of 12
Pollen 8.10 out of 12
Air Quality Not available.
Flu Activity Not available.
METAR KFFA 210135Z AUTO 10003KT 10SM CLR 24/22 A3000 RMK AO2 T02420215

More Conditions Fewer Conditions

Pressure 30.00 in
Visibility 10.0 miles
Clouds Clear
Heat Index 80 °F
Dew Point 64 °F
Humidity 63%
Rainfall 0.00 in
Snow Depth Not available.
UV 0 out of 12
Pollen 8.10 out of 12
Air Quality Not available.
Flu Activity Not available.
METAR KFFA 210135Z AUTO 10003KT 10SM CLR 24/22 A3000 RMK AO2 T02420215

More Conditions Fewer Conditions

10-Day Weather Forecast

Almanac

Astronomy

Aug. 20, 2014 Rise Set
Actual Time 6:25 AM EDT 7:47 PM EDT
Civil Twilight 5:58 AM EDT 8:13 PM EDT
Nautical Twilight 5:26 AM EDT 8:46 PM EDT
Astronomical Twilight 4:52 AM EDT 9:19 PM EDT
Moon 2:06 AM EDT (8/20) 4:27 PM EDT (8/20)
Length of Visible Light 14h 15m
Length of Day
13h 21m
Tomorrow will be 2m 4s shorter.
Waning Crescent, 17% of the Moon is Illuminated
Today
Waning Crescent
Aug 25
New
Sep 2
First Quarter
Sep 8
Full
Sep 15
Last Quarter

Today's Extremes

State Highs State Lows

Community

WunderPhotos

Upload Photos

1,745,859 photos uploaded!

WunderBlogs® & News

Nearby

Snow Depth

Station Depth Elevation
No new snow has been reported.

Earthquake Activity

City Distance Mag. Time & Date
No recent earthquake activity has been reported nearby.
Minimum magnitude displayed is 2.5.

Coastal Water Temperatures

Place Temperature
Oregon Inlet Marina, NC 82.0 °F
Duck Pier, NC 79.0 °F
Hatteras, NC 82.0 °F
Money Point, VA 84.0 °F
Sewells Point, VA 79.0 °F
Chesapeake Bay Bridge Tunnel, VA 77.0 °F

Nearby Weather Stations